Etusivu
METAR-TAF:

METAR-TAF

Lentoasemat :

Kajaani, Suomi

Kajaanin lentoasema

Leveyspiiri: 64-17N, Pituuspiiri: 027-41E, korkeus merenpinnasta: 143 m

Tämänhetkinen sää

Tämä raportti tehtiin 10 minuuttia sitten, kello 14.20 UTC
Tuuli 5 kn idästä/kaakosta, vaihdellen idän/koillisen ja etelän välillä
Lämpötila 22°C
Kosteus 60%
Ilmanpaine 1006 hPa
Näkyvyys 10 km tai enemmän
Muutamia pilviä 3200 ft:n korkeudessa

METAR: EFKI 271420Z AUTO 12005KT 060V170 9999 FEW032 22/14 Q1006

Aika: 17:30 (14:30 UTC)

Sääennuste

Tämä raportti tehtiin 3 tuntia ja 6 minuuttia sitten, kello 11.24 UTC
Ennuste voimassa 27. päivästä klo 12 UTC - 27. päivään klo 18 UTC
Tuuli 3 kn lännestä/luoteesta
Näkyvyys 10 km tai enemmän
Hajonneita pilviä 2000 ft:n korkeudessa

TAF: EFKI 271124Z 2712/2718 30003KT 9999 BKN020

Säähavainnot ja -ennusteet yli 4000 lentoasemalta (METAR- ja TAF-raportit).

Käytössä olevat sääasemat on merkitty karttaan keltaisilla ja punaisilla pisteillä.

Aseta hiiri pisteen päälle nähdäksesi sääaseman nimen.

Klikkaa sitten nähdäksesi säähavainnot ja -ennusteet.

Kartan vaihtaminen: klikkaa mustalla rastilla varustettuja vihreitä pisteitä, niin voit zoomata sisään; viivalla varustettua vihreää pistettä, niin voit zoomata ulos tai vihreitä nuolia, niin pääset viereisille kartoille.


METAR-TAF: